createdAt,value
2019-03-03T00:01:18.499Z,3.80
2019-03-03T00:03:47.651Z,3.90
2019-03-03T00:06:16.624Z,3.90
2019-03-03T00:08:45.298Z,4.00
2019-03-03T00:11:13.955Z,4.00
2019-03-03T00:13:42.904Z,4.00
2019-03-03T00:16:11.879Z,4.10
2019-03-03T00:18:40.558Z,4.10
2019-03-03T00:21:09.209Z,4.10
2019-03-03T00:23:37.874Z,4.20
2019-03-03T00:26:06.763Z,4.20
2019-03-03T00:28:35.729Z,4.30
2019-03-03T00:31:04.454Z,4.30
2019-03-03T00:33:33.357Z,4.30
2019-03-03T00:36:02.090Z,4.30
2019-03-03T00:38:42.466Z,4.40
2019-03-03T00:41:22.760Z,4.40
2019-03-03T00:44:04.106Z,4.40
2019-03-03T00:47:01.207Z,4.40
2019-03-03T00:49:36.061Z,4.40
2019-03-03T00:52:10.149Z,4.50
2019-03-03T00:54:57.018Z,4.50
2019-03-03T00:57:34.647Z,4.50
2019-03-03T01:00:11.701Z,4.50
2019-03-03T01:02:45.231Z,4.60
2019-03-03T01:05:20.597Z,4.60
2019-03-03T01:08:08.702Z,4.60
2019-03-03T01:10:59.681Z,4.60
2019-03-03T01:13:34.747Z,4.70
2019-03-03T01:16:14.030Z,4.70
2019-03-03T01:18:54.579Z,4.70
2019-03-03T01:21:32.082Z,4.80
2019-03-03T01:24:12.991Z,4.80
2019-03-03T01:26:41.712Z,4.80
2019-03-03T01:29:10.407Z,4.90
2019-03-03T01:31:39.045Z,5.00
2019-03-03T01:34:08.145Z,5.00
2019-03-03T01:36:36.875Z,5.00
2019-03-03T01:39:06.849Z,5.00
2019-03-03T01:41:36.043Z,5.00
2019-03-03T01:44:04.917Z,5.00
2019-03-03T01:46:33.782Z,5.00
2019-03-03T01:49:03.229Z,5.00
2019-03-03T01:51:32.527Z,5.00
2019-03-03T01:54:01.258Z,5.00
2019-03-03T01:56:30.130Z,5.10
2019-03-03T01:59:00.635Z,5.10
2019-03-03T02:01:29.505Z,5.10
2019-03-03T02:03:58.147Z,5.10
2019-03-03T02:06:26.817Z,5.10
2019-03-03T02:08:55.474Z,5.10
2019-03-03T02:11:24.142Z,5.10
2019-03-03T02:13:53.053Z,5.20
2019-03-03T02:16:22.227Z,5.20
2019-03-03T02:18:50.909Z,5.20
2019-03-03T02:21:19.596Z,5.20
2019-03-03T02:23:49.004Z,5.20
2019-03-03T02:26:17.949Z,5.20
2019-03-03T02:28:46.996Z,5.20
2019-03-03T02:31:15.920Z,5.20
2019-03-03T02:33:44.655Z,5.30
2019-03-03T02:36:13.309Z,5.30
2019-03-03T02:38:42.416Z,5.30
2019-03-03T02:41:11.823Z,5.30
2019-03-03T02:43:41.366Z,5.40
2019-03-03T02:46:10.290Z,5.30
2019-03-03T02:48:38.946Z,5.40
2019-03-03T02:51:07.881Z,5.40
2019-03-03T02:53:36.888Z,5.40
2019-03-03T02:56:05.667Z,5.40
2019-03-03T02:58:34.381Z,5.40
2019-03-03T03:01:25.060Z,5.50
2019-03-03T03:03:53.722Z,5.50
2019-03-03T03:06:36.374Z,5.50
2019-03-03T03:09:26.241Z,5.60
2019-03-03T03:12:10.307Z,5.60
2019-03-03T03:14:46.720Z,5.70
2019-03-03T03:17:25.506Z,5.70
2019-03-03T03:20:00.927Z,5.70
2019-03-03T03:22:48.740Z,5.70
2019-03-03T03:25:23.533Z,5.80
2019-03-03T03:28:12.989Z,5.80
2019-03-03T03:30:51.225Z,5.80
2019-03-03T03:33:38.338Z,5.90
2019-03-03T03:36:26.111Z,5.90
2019-03-03T03:39:18.054Z,5.90
2019-03-03T03:42:01.095Z,5.90
2019-03-03T03:44:48.763Z,5.90
2019-03-03T03:47:35.672Z,5.90
2019-03-03T03:50:24.059Z,5.90
2019-03-03T03:52:59.978Z,5.80
2019-03-03T03:55:38.179Z,5.80
2019-03-03T03:58:15.932Z,5.80
2019-03-03T04:00:51.251Z,5.80
2019-03-03T04:03:41.726Z,5.80
2019-03-03T04:06:18.815Z,5.90
2019-03-03T04:09:01.989Z,5.90
2019-03-03T04:11:59.033Z,5.90
2019-03-03T04:14:43.853Z,5.80
2019-03-03T04:17:24.953Z,5.80
2019-03-03T04:20:21.844Z,5.80
2019-03-03T04:23:05.527Z,5.80
2019-03-03T04:25:44.850Z,5.90
2019-03-03T04:28:28.636Z,5.90
2019-03-03T04:31:09.173Z,5.90
2019-03-03T04:33:43.373Z,5.90
2019-03-03T04:36:30.463Z,6.10
2019-03-03T04:39:13.918Z,6.10
2019-03-03T04:42:06.103Z,6.20
2019-03-03T04:44:49.911Z,6.30
2019-03-03T04:47:34.871Z,6.40
2019-03-03T04:50:18.699Z,6.40
2019-03-03T04:53:06.636Z,6.50
2019-03-03T04:56:04.828Z,6.50
2019-03-03T04:58:47.454Z,6.60
2019-03-03T05:01:26.937Z,6.60
2019-03-03T05:04:17.687Z,6.70
2019-03-03T05:07:11.562Z,6.70
2019-03-03T05:09:55.608Z,6.70
2019-03-03T05:12:59.349Z,6.70
2019-03-03T05:15:46.368Z,6.70
2019-03-03T05:18:33.192Z,6.80
2019-03-03T05:21:01.856Z,6.80
2019-03-03T05:23:30.982Z,6.90
2019-03-03T05:25:59.692Z,6.90
2019-03-03T05:28:29.336Z,6.90
2019-03-03T05:30:57.982Z,6.90
2019-03-03T05:33:27.332Z,6.90
2019-03-03T05:35:56.009Z,6.90
2019-03-03T05:38:24.722Z,6.90
2019-03-03T05:40:53.731Z,7.00
2019-03-03T05:43:22.496Z,7.00
2019-03-03T05:45:51.513Z,7.10
2019-03-03T05:48:20.134Z,7.10
2019-03-03T05:50:49.493Z,7.10
2019-03-03T05:53:18.178Z,7.10
2019-03-03T05:55:46.885Z,7.20
2019-03-03T05:58:15.814Z,7.20
2019-03-03T06:00:44.742Z,7.20
2019-03-03T06:03:13.483Z,7.20
2019-03-03T06:05:42.239Z,7.20
2019-03-03T06:08:11.027Z,7.10
2019-03-03T06:10:39.716Z,7.10
2019-03-03T06:13:08.615Z,7.10
2019-03-03T06:15:37.441Z,7.20
2019-03-03T06:18:06.481Z,7.20
2019-03-03T06:20:35.489Z,7.20
2019-03-03T06:23:04.212Z,7.30
2019-03-03T06:25:33.059Z,7.30
2019-03-03T06:28:02.175Z,7.30
2019-03-03T06:30:30.852Z,7.40
2019-03-03T06:33:00.037Z,7.40
2019-03-03T06:35:28.683Z,7.50
2019-03-03T06:37:57.574Z,7.50
2019-03-03T06:40:26.284Z,7.50
2019-03-03T06:42:54.960Z,7.50
2019-03-03T06:45:24.888Z,7.50
2019-03-03T06:47:53.621Z,7.60
2019-03-03T06:50:22.255Z,7.60
2019-03-03T06:52:51.200Z,7.70
2019-03-03T06:55:19.831Z,7.70
2019-03-03T06:57:49.044Z,7.80
2019-03-03T07:00:17.914Z,7.80
2019-03-03T07:02:46.836Z,7.90
2019-03-03T07:05:15.481Z,7.90
2019-03-03T07:07:44.339Z,8.00
2019-03-03T07:10:13.845Z,8.00
2019-03-03T07:12:42.818Z,8.10
2019-03-03T07:15:13.568Z,8.20
2019-03-03T07:17:42.658Z,8.20
2019-03-03T07:20:11.935Z,8.30
2019-03-03T07:22:40.692Z,8.40
2019-03-03T07:25:10.815Z,8.40
2019-03-03T07:27:39.786Z,8.50
2019-03-03T07:30:11.313Z,8.50
2019-03-03T07:32:47.541Z,8.60
2019-03-03T07:35:16.321Z,8.70
2019-03-03T07:37:45.005Z,8.70
2019-03-03T07:40:14.028Z,8.80
2019-03-03T07:42:42.742Z,8.90
2019-03-03T07:45:11.731Z,9.00
2019-03-03T07:47:40.455Z,9.10
2019-03-03T07:50:09.295Z,9.10
2019-03-03T07:52:37.963Z,9.20
2019-03-03T07:55:07.181Z,9.30
2019-03-03T07:57:36.539Z,9.40
2019-03-03T08:00:07.335Z,9.50
2019-03-03T08:02:36.004Z,9.50
2019-03-03T08:05:05.343Z,9.50
2019-03-03T08:07:34.031Z,9.60
2019-03-03T08:10:03.032Z,9.70
2019-03-03T08:12:31.959Z,9.60
2019-03-03T08:15:00.987Z,9.80
2019-03-03T08:17:29.954Z,9.80
2019-03-03T08:19:58.756Z,9.90
2019-03-03T08:22:27.414Z,10.00
2019-03-03T08:24:56.603Z,10.00
2019-03-03T08:27:25.640Z,10.10
2019-03-03T08:29:54.688Z,10.20
2019-03-03T08:32:26.470Z,10.20
2019-03-03T08:34:55.229Z,10.30
2019-03-03T08:37:24.264Z,10.20
2019-03-03T08:39:52.962Z,10.20
2019-03-03T08:42:40.083Z,10.30
2019-03-03T08:45:26.823Z,10.30
2019-03-03T08:48:00.365Z,10.50
2019-03-03T08:50:36.342Z,10.60
2019-03-03T08:53:23.991Z,10.50
2019-03-03T08:56:13.369Z,10.50
2019-03-03T08:59:00.359Z,10.50
2019-03-03T09:01:36.887Z,10.50
2019-03-03T09:04:43.118Z,10.50
2019-03-03T09:07:19.923Z,10.50
2019-03-03T09:10:10.522Z,10.50
2019-03-03T09:12:57.611Z,10.60
2019-03-03T09:16:02.875Z,10.60
2019-03-03T09:18:40.274Z,10.60
2019-03-03T09:21:25.439Z,10.40
2019-03-03T09:24:11.991Z,10.50
2019-03-03T09:26:53.684Z,10.50
2019-03-03T09:29:28.766Z,10.60
2019-03-03T09:32:32.288Z,10.60
2019-03-03T09:35:13.644Z,10.60
2019-03-03T09:37:51.275Z,10.50
2019-03-03T09:40:25.624Z,10.60
2019-03-03T09:43:08.237Z,10.60
2019-03-03T09:45:51.756Z,10.70
2019-03-03T09:48:33.750Z,10.70
2019-03-03T09:51:09.151Z,10.80
2019-03-03T09:53:54.985Z,10.80
2019-03-03T09:56:42.820Z,10.80
2019-03-03T09:59:35.553Z,10.90
2019-03-03T10:02:24.682Z,10.90
2019-03-03T10:05:00.286Z,11.00
2019-03-03T10:07:45.921Z,11.00
2019-03-03T10:10:23.478Z,11.00
2019-03-03T10:13:10.107Z,11.00
2019-03-03T10:15:46.737Z,11.00
2019-03-03T10:18:30.851Z,11.00
2019-03-03T10:21:05.457Z,11.00
2019-03-03T10:23:43.371Z,11.10
2019-03-03T10:26:37.572Z,11.10
2019-03-03T10:29:20.246Z,11.20
2019-03-03T10:32:03.636Z,11.10
2019-03-03T10:34:50.507Z,11.10
2019-03-03T10:37:25.474Z,11.10
2019-03-03T10:40:01.551Z,11.00
2019-03-03T10:42:51.730Z,11.00
2019-03-03T10:45:38.239Z,11.00
2019-03-03T10:48:18.403Z,11.00
2019-03-03T10:51:12.374Z,11.10
2019-03-03T10:53:49.421Z,11.00
2019-03-03T10:56:36.564Z,11.00
2019-03-03T10:59:24.443Z,11.00
2019-03-03T11:02:09.146Z,11.00
2019-03-03T11:05:03.674Z,11.00
2019-03-03T11:07:50.424Z,11.00
2019-03-03T11:10:37.195Z,11.00
2019-03-03T11:13:31.169Z,11.00
2019-03-03T11:16:17.698Z,11.00
2019-03-03T11:19:11.675Z,11.20
2019-03-03T11:21:58.370Z,11.20
2019-03-03T11:24:42.864Z,11.30
2019-03-03T11:27:22.733Z,11.20
2019-03-03T11:30:10.010Z,11.30
2019-03-03T11:32:51.808Z,11.30
2019-03-03T11:35:29.896Z,11.40
2019-03-03T11:38:05.589Z,11.30
2019-03-03T11:40:53.726Z,11.30
2019-03-03T11:43:30.729Z,11.40
2019-03-03T11:46:06.681Z,11.40
2019-03-03T11:48:53.794Z,11.50
2019-03-03T11:51:43.255Z,11.40
2019-03-03T11:54:16.961Z,11.50
2019-03-03T11:56:57.600Z,11.50
2019-03-03T11:59:46.225Z,11.50
2019-03-03T12:02:33.637Z,11.50
2019-03-03T12:05:20.263Z,11.40
2019-03-03T12:07:55.952Z,11.40
2019-03-03T12:10:34.208Z,11.30
2019-03-03T12:13:21.233Z,11.30
2019-03-03T12:15:58.775Z,11.20
2019-03-03T12:18:49.619Z,11.10
2019-03-03T12:21:35.548Z,11.00
2019-03-03T12:24:23.549Z,11.00
2019-03-03T12:27:06.619Z,10.90
2019-03-03T12:29:58.036Z,10.80
2019-03-03T12:32:34.823Z,10.90
2019-03-03T12:35:13.568Z,10.90
2019-03-03T12:37:51.124Z,10.80
2019-03-03T12:40:54.186Z,10.80
2019-03-03T12:43:40.855Z,10.90
2019-03-03T12:46:18.327Z,10.90
2019-03-03T12:49:06.914Z,10.90
2019-03-03T12:51:45.144Z,11.00
2019-03-03T12:54:31.671Z,11.10
2019-03-03T12:57:10.257Z,11.10
2019-03-03T13:01:44.390Z,11.10
2019-03-03T13:04:30.416Z,11.20
2019-03-03T13:07:16.870Z,11.30
2019-03-03T13:10:03.641Z,11.40
2019-03-03T13:12:57.261Z,11.30
2019-03-03T13:15:49.057Z,11.40
2019-03-03T13:18:25.878Z,11.30
2019-03-03T13:21:01.160Z,11.30
2019-03-03T13:23:37.634Z,11.30
2019-03-03T13:26:18.538Z,11.30
2019-03-03T13:28:54.520Z,11.20
2019-03-03T13:31:37.115Z,11.20
2019-03-03T13:34:23.473Z,11.20
2019-03-03T13:37:10.297Z,11.20
2019-03-03T13:40:01.187Z,11.10
2019-03-03T13:42:42.295Z,11.20
2019-03-03T13:45:11.824Z,11.20
2019-03-03T13:47:40.626Z,11.20
2019-03-03T13:50:12.064Z,11.20
2019-03-03T13:52:40.784Z,11.20
2019-03-03T13:55:10.639Z,11.20
2019-03-03T13:57:39.552Z,11.20
2019-03-03T14:00:09.879Z,11.30
2019-03-03T14:02:38.976Z,11.30
2019-03-03T14:05:08.539Z,11.30
2019-03-03T14:07:37.240Z,11.40
2019-03-03T14:10:07.251Z,11.50
2019-03-03T14:12:35.926Z,11.60
2019-03-03T14:15:05.345Z,11.70
2019-03-03T14:17:34.128Z,11.60
2019-03-03T14:20:02.915Z,11.70
2019-03-03T14:22:31.560Z,11.70
2019-03-03T14:25:00.528Z,11.60
2019-03-03T14:27:29.270Z,11.60
2019-03-03T14:29:57.915Z,11.70
2019-03-03T14:32:27.112Z,11.60
2019-03-03T14:34:56.122Z,11.60
2019-03-03T14:37:24.973Z,11.60
2019-03-03T14:39:53.803Z,11.60
2019-03-03T14:42:22.485Z,11.50
2019-03-03T14:44:51.195Z,11.40
2019-03-03T14:47:19.874Z,11.40
2019-03-03T14:49:48.512Z,11.30
2019-03-03T14:52:17.574Z,11.20
2019-03-03T14:54:46.241Z,11.10
2019-03-03T14:57:15.174Z,11.10
2019-03-03T14:59:44.038Z,11.00
2019-03-03T15:02:12.773Z,11.00
2019-03-03T15:04:41.442Z,10.90
2019-03-03T15:07:10.257Z,10.80
2019-03-03T15:09:39.107Z,10.80
2019-03-03T15:12:08.014Z,10.80
2019-03-03T15:14:36.668Z,10.70
2019-03-03T15:17:05.455Z,10.50
2019-03-03T15:19:34.165Z,10.40
2019-03-03T15:22:02.840Z,10.40
2019-03-03T15:24:31.640Z,10.30
2019-03-03T15:27:00.988Z,10.20
2019-03-03T15:29:30.235Z,10.20
2019-03-03T15:31:59.271Z,10.10
2019-03-03T15:34:28.064Z,10.00
2019-03-03T15:36:56.815Z,10.00
2019-03-03T15:39:25.539Z,10.00
2019-03-03T15:41:54.565Z,10.00
2019-03-03T15:44:23.363Z,10.00
2019-03-03T15:46:52.518Z,9.90
2019-03-03T15:49:21.237Z,9.90
2019-03-03T15:51:49.925Z,9.90
2019-03-03T15:54:18.677Z,9.80
2019-03-03T15:56:47.450Z,9.80
2019-03-03T15:59:16.267Z,9.80
2019-03-03T16:01:45.083Z,9.80
2019-03-03T16:04:13.975Z,9.80
2019-03-03T16:06:42.740Z,9.80
2019-03-03T16:09:17.947Z,9.80
2019-03-03T16:11:46.632Z,9.80
2019-03-03T16:14:15.377Z,9.70
2019-03-03T16:16:45.402Z,9.70
2019-03-03T16:19:14.202Z,9.70
2019-03-03T16:21:43.122Z,9.70
2019-03-03T16:24:11.901Z,9.60
2019-03-03T16:26:41.239Z,9.60
2019-03-03T16:29:10.082Z,9.60
2019-03-03T16:31:38.874Z,9.60
2019-03-03T16:34:07.568Z,9.60
2019-03-03T16:36:36.251Z,9.60
2019-03-03T16:39:06.536Z,9.50
2019-03-03T16:41:35.355Z,9.50
2019-03-03T16:44:04.419Z,9.50
2019-03-03T16:46:33.084Z,9.50
2019-03-03T16:49:01.836Z,9.50
2019-03-03T16:51:30.621Z,9.50
2019-03-03T16:53:59.305Z,9.50
2019-03-03T16:56:28.022Z,9.50
2019-03-03T16:58:57.749Z,9.50
2019-03-03T17:01:26.642Z,9.50
2019-03-03T17:03:55.348Z,9.50
2019-03-03T17:06:24.070Z,9.50
2019-03-03T17:08:52.750Z,9.50
2019-03-03T17:11:21.776Z,9.50
2019-03-03T17:13:50.798Z,9.50
2019-03-03T17:16:19.464Z,9.50
2019-03-03T17:18:48.219Z,9.50
2019-03-03T17:21:17.019Z,9.50
2019-03-03T17:23:46.047Z,9.50
2019-03-03T17:26:14.780Z,9.50
2019-03-03T17:28:43.426Z,9.50
2019-03-03T17:31:12.547Z,9.50
2019-03-03T17:33:41.546Z,9.50
2019-03-03T17:36:10.503Z,9.50
2019-03-03T17:38:39.601Z,9.50
2019-03-03T17:41:08.258Z,9.50
2019-03-03T17:43:37.168Z,9.50
2019-03-03T17:46:06.375Z,9.50
2019-03-03T17:48:35.118Z,9.50
2019-03-03T17:51:03.778Z,9.40
2019-03-03T17:53:33.299Z,9.50
2019-03-03T17:56:02.006Z,9.50
2019-03-03T17:58:30.772Z,9.50
2019-03-03T18:00:59.602Z,9.50
2019-03-03T18:03:28.404Z,9.50
2019-03-03T18:05:57.517Z,9.50
2019-03-03T18:08:26.191Z,9.50
2019-03-03T18:10:54.856Z,9.50
2019-03-03T18:13:23.642Z,9.50
2019-03-03T18:15:52.327Z,9.50
2019-03-03T18:18:21.110Z,9.60
2019-03-03T18:20:49.779Z,9.70
2019-03-03T18:23:19.067Z,9.60
2019-03-03T18:25:48.071Z,9.60
2019-03-03T18:28:16.832Z,9.70
2019-03-03T18:30:45.578Z,9.70
2019-03-03T18:33:14.263Z,9.70
2019-03-03T18:35:42.968Z,9.80
2019-03-03T18:38:12.254Z,9.70
2019-03-03T18:40:40.930Z,9.80
2019-03-03T18:43:09.827Z,9.80
2019-03-03T18:45:38.754Z,9.80
2019-03-03T18:48:07.730Z,9.80
2019-03-03T18:50:36.514Z,9.80
2019-03-03T18:53:05.598Z,9.80
2019-03-03T18:55:34.368Z,9.80
2019-03-03T18:58:03.159Z,9.80
2019-03-03T19:00:32.240Z,9.70
2019-03-03T19:03:01.229Z,9.80
2019-03-03T19:05:31.704Z,9.70
2019-03-03T19:08:00.562Z,9.70
2019-03-03T19:10:29.454Z,9.80
2019-03-03T19:13:05.668Z,9.80
2019-03-03T19:15:34.423Z,9.80
2019-03-03T19:18:03.091Z,9.80
2019-03-03T19:20:31.866Z,9.80
2019-03-03T19:23:00.558Z,9.80
2019-03-03T19:25:30.589Z,9.80
2019-03-03T19:27:59.638Z,9.80
2019-03-03T19:30:28.865Z,9.80
2019-03-03T19:33:12.585Z,9.80
2019-03-03T19:35:41.376Z,9.80
2019-03-03T19:38:10.057Z,9.80
2019-03-03T19:40:39.288Z,9.80
2019-03-03T19:43:07.951Z,9.80
2019-03-03T19:45:36.765Z,9.80
2019-03-03T19:48:05.797Z,9.80
2019-03-03T19:50:34.845Z,9.80
2019-03-03T19:53:03.949Z,9.80
2019-03-03T19:55:33.311Z,9.80
2019-03-03T19:58:02.227Z,9.80
2019-03-03T20:00:36.783Z,9.90
2019-03-03T20:03:02.793Z,9.80
2019-03-03T20:05:31.687Z,9.90
2019-03-03T20:08:00.552Z,9.90
2019-03-03T20:10:29.684Z,10.00
2019-03-03T20:12:58.390Z,9.90
2019-03-03T20:15:36.474Z,9.90
2019-03-03T20:18:06.443Z,9.90
2019-03-03T20:20:35.243Z,10.00
2019-03-03T20:23:04.334Z,10.00
2019-03-03T20:25:33.070Z,10.00
2019-03-03T20:28:01.907Z,10.00
2019-03-03T20:30:30.817Z,10.00
2019-03-03T20:32:59.579Z,10.00
2019-03-03T20:35:28.271Z,10.00
2019-03-03T20:37:57.016Z,10.10
2019-03-03T20:40:25.808Z,10.00
2019-03-03T20:42:54.752Z,10.10
2019-03-03T20:45:24.348Z,10.10
2019-03-03T20:47:53.640Z,10.10
2019-03-03T20:50:22.775Z,10.00
2019-03-03T20:52:51.632Z,10.10
2019-03-03T20:55:20.951Z,10.10
2019-03-03T20:57:49.710Z,10.10
2019-03-03T21:00:22.981Z,10.20
2019-03-03T21:02:51.652Z,10.20
2019-03-03T21:05:20.443Z,10.20
2019-03-03T21:07:51.707Z,10.20
2019-03-03T21:10:20.718Z,10.20
2019-03-03T21:12:49.524Z,10.20
2019-03-03T21:15:18.560Z,10.20
2019-03-03T21:17:47.287Z,10.20
2019-03-03T21:20:17.713Z,10.20
2019-03-03T21:22:46.552Z,10.20
2019-03-03T21:25:15.693Z,10.20
2019-03-03T21:27:44.738Z,10.20
2019-03-03T21:30:18.515Z,10.30
2019-03-03T21:32:47.391Z,10.20
2019-03-03T21:35:16.218Z,10.30
2019-03-03T21:37:45.070Z,10.20
2019-03-03T21:40:15.576Z,10.30
2019-03-03T21:42:44.422Z,10.30
2019-03-03T21:45:14.887Z,10.30
2019-03-03T21:47:43.587Z,10.30
2019-03-03T21:50:17.090Z,10.30
2019-03-03T21:52:46.130Z,10.30
2019-03-03T21:56:56.349Z,10.30
2019-03-03T21:59:25.522Z,10.30
2019-03-03T22:01:54.480Z,10.30
2019-03-03T22:04:23.453Z,10.30
2019-03-03T22:06:52.135Z,10.30
2019-03-03T22:09:21.216Z,10.30
2019-03-03T22:11:49.870Z,10.30
2019-03-03T22:14:18.845Z,10.30
2019-03-03T22:16:47.501Z,10.30
2019-03-03T22:19:16.323Z,10.30
2019-03-03T22:21:44.977Z,10.30
2019-03-03T22:24:13.898Z,10.20
2019-03-03T22:26:42.922Z,10.20
2019-03-03T22:29:12.600Z,10.10
2019-03-03T22:31:42.063Z,10.10
2019-03-03T22:34:10.834Z,10.00
2019-03-03T22:36:39.581Z,10.00
2019-03-03T22:39:09.425Z,10.00
2019-03-03T22:41:38.167Z,9.90
2019-03-03T22:44:06.935Z,9.90
2019-03-03T22:46:35.863Z,9.80
2019-03-03T22:49:04.642Z,9.80
2019-03-03T22:51:33.299Z,9.70
2019-03-03T22:54:02.443Z,9.70
2019-03-03T22:56:31.136Z,9.70
2019-03-03T22:58:59.844Z,9.60
2019-03-03T23:01:36.076Z,9.60
2019-03-03T23:04:45.100Z,9.60
2019-03-03T23:07:48.012Z,9.60
2019-03-03T23:10:38.311Z,9.50
2019-03-03T23:13:35.462Z,9.50
2019-03-03T23:16:26.367Z,9.50
2019-03-03T23:19:55.260Z,9.50
2019-03-03T23:22:43.197Z,9.50
2019-03-03T23:25:50.048Z,9.50
2019-03-03T23:28:19.552Z,9.50
2019-03-03T23:30:48.567Z,9.50
2019-03-03T23:33:18.005Z,9.50
2019-03-03T23:35:46.764Z,9.60
2019-03-03T23:38:15.770Z,9.60
2019-03-03T23:40:44.763Z,9.60
2019-03-03T23:43:13.835Z,9.70
2019-03-03T23:45:42.575Z,9.70
2019-03-03T23:48:11.314Z,9.70
2019-03-03T23:50:39.980Z,9.70
2019-03-03T23:53:08.803Z,9.70
2019-03-03T23:55:37.803Z,9.80
2019-03-03T23:58:06.607Z,9.90
